Time;durP1;ratioP1;P1;durP2;ratioP2;P2;SDS_P1;SDS_P2;PMS_P1;PMS_P2;Temp;Humidity;BMP_temperature;BMP_pressure;BME280_temperature;BME280_humidity;BME280_pressure;Samples;Min_cycle;Max_cycle;Signal;HPM_P1;HPM_P2
2022/08/09 00:02:09;;;;;;;5.50;5.00;;;;;;;;;;5096242;28;20427;-71
2022/08/09 00:04:36;;;;;;;5.23;4.73;;;;;;;;;;5096027;28;20959;-71
2022/08/09 00:07:04;;;;;;;6.73;4.20;;;;;;;;;;5096010;28;20486;-71
2022/08/09 00:09:31;;;;;;;7.17;5.20;;;;;;;;;;5095789;28;20446;-71
2022/08/09 00:11:58;;;;;;;7.27;5.17;;;;;;;;;;5096000;28;20461;-71
2022/08/09 00:14:26;;;;;;;5.60;4.80;;;;;;;;;;5095640;28;20458;-72
2022/08/09 00:16:54;;;;;;;5.20;4.80;;;;;;;;;;5095949;28;20533;-72
2022/08/09 00:19:21;;;;;;;5.60;5.00;;;;;;;;;;5095575;28;20461;-72
2022/08/09 00:21:48;;;;;;;6.93;5.30;;;;;;;;;;5095502;28;20465;-72
2022/08/09 00:24:15;;;;;;;5.07;4.60;;;;;;;;;;5095698;28;20474;-71
2022/08/09 00:26:43;;;;;;;4.97;4.53;;;;;;;;;;5095760;28;21098;-71
2022/08/09 00:29:10;;;;;;;6.50;5.23;;;;;;;;;;5095255;28;20435;-71
2022/08/09 00:31:38;;;;;;;5.87;5.37;;;;;;;;;;5095660;28;20950;-71
2022/08/09 00:34:05;;;;;;;7.23;5.80;;;;;;;;;;5095461;28;20471;-71
2022/08/09 00:36:32;;;;;;;8.93;5.70;;;;;;;;;;5095569;28;20474;-71
2022/08/09 00:39:00;;;;;;;5.67;5.03;;;;;;;;;;5095198;28;20446;-71
2022/08/09 00:41:27;;;;;;;5.27;4.87;;;;;;;;;;5095400;28;20924;-71
2022/08/09 00:43:54;;;;;;;5.30;4.80;;;;;;;;;;5095018;28;20482;-71
2022/08/09 00:46:21;;;;;;;5.60;5.10;;;;;;;;;;5095012;28;20463;-71
2022/08/09 00:48:50;;;;;;;5.80;4.70;;;;;;;;;;5095343;28;20852;-71
2022/08/09 00:51:17;;;;;;;5.50;5.10;;;;;;;;;;5094985;28;20525;-71
2022/08/09 00:53:45;;;;;;;7.00;5.37;;;;;;;;;;5095161;28;20467;-71
2022/08/09 00:56:12;;;;;;;9.03;6.17;;;;;;;;;;5095140;28;21005;-71
2022/08/09 00:58:39;;;;;;;7.97;5.60;;;;;;;;;;5095099;28;20936;-71
2022/08/09 01:01:11;;;;;;;9.03;6.07;;;;;;;;;;5094795;28;20457;-71
2022/08/09 01:03:42;;;;;;;7.30;4.93;;;;;;;;;;5094944;28;20528;-71
2022/08/09 01:06:13;;;;;;;6.20;5.60;;;;;;;;;;5094773;28;20443;-71
2022/08/09 01:08:46;;;;;;;5.47;4.70;;;;;;;;;;5094550;28;20471;-71
2022/08/09 01:11:18;;;;;;;5.27;4.83;;;;;;;;;;5094901;28;20442;-71
2022/08/09 01:13:50;;;;;;;5.90;5.40;;;;;;;;;;5094711;28;20510;-71
2022/08/09 01:16:17;;;;;;;7.13;4.93;;;;;;;;;;5094520;28;20439;-71
2022/08/09 01:18:46;;;;;;;6.63;5.73;;;;;;;;;;5094807;28;20438;-71
2022/08/09 01:21:21;;;;;;;6.97;5.63;;;;;;;;;;5094619;28;20462;-71
2022/08/09 01:23:56;;;;;;;5.40;4.87;;;;;;;;;;5094598;28;20477;-71
2022/08/09 01:26:37;;;;;;;5.43;4.93;;;;;;;;;;5094589;28;20442;-71
2022/08/09 01:29:05;;;;;;;6.80;5.47;;;;;;;;;;5094210;28;20470;-71
2022/08/09 01:31:35;;;;;;;6.60;6.00;;;;;;;;;;5094412;28;20451;-71
2022/08/09 01:34:03;;;;;;;7.67;5.43;;;;;;;;;;5094393;28;20495;-71
2022/08/09 01:36:33;;;;;;;7.97;5.63;;;;;;;;;;5094384;28;20458;-71
2022/08/09 01:39:02;;;;;;;6.63;4.87;;;;;;;;;;5094093;28;20444;-71
2022/08/09 01:41:30;;;;;;;5.30;4.90;;;;;;;;;;5093797;28;20458;-71
2022/08/09 01:43:59;;;;;;;6.37;5.40;;;;;;;;;;5093670;28;20479;-71
2022/08/09 01:46:28;;;;;;;7.03;6.00;;;;;;;;;;5094270;28;20939;-71
2022/08/09 01:48:57;;;;;;;6.07;5.27;;;;;;;;;;5093756;28;20482;-71
2022/08/09 01:51:26;;;;;;;5.90;5.37;;;;;;;;;;5094113;28;20451;-71
2022/08/09 01:53:54;;;;;;;6.10;5.50;;;;;;;;;;5094053;28;20475;-71
2022/08/09 01:56:22;;;;;;;10.53;6.10;;;;;;;;;;5094172;28;20904;-71
2022/08/09 01:58:51;;;;;;;7.97;6.37;;;;;;;;;;5093704;28;20450;-71
2022/08/09 02:01:20;;;;;;;13.27;7.60;;;;;;;;;;5094017;28;20450;-71
2022/08/09 02:03:48;;;;;;;8.17;5.73;;;;;;;;;;5093873;28;20470;-71
2022/08/09 02:06:15;;;;;;;13.43;5.60;;;;;;;;;;5093904;28;20457;-71
2022/08/09 02:08:44;;;;;;;6.53;5.87;;;;;;;;;;5093745;28;20494;-71
2022/08/09 02:11:13;;;;;;;7.90;6.53;;;;;;;;;;5093501;28;20946;-71
2022/08/09 02:13:41;;;;;;;7.10;5.97;;;;;;;;;;5093460;28;20474;-71
2022/08/09 02:16:10;;;;;;;6.87;6.00;;;;;;;;;;5093506;28;20446;-71
2022/08/09 02:18:38;;;;;;;6.73;6.13;;;;;;;;;;5093739;28;20932;-71
2022/08/09 02:21:08;;;;;;;7.47;5.83;;;;;;;;;;5093678;28;20793;-71
2022/08/09 02:23:38;;;;;;;10.03;5.63;;;;;;;;;;5093552;28;20478;-70
2022/08/09 02:26:05;;;;;;;7.93;6.10;;;;;;;;;;5093659;28;20453;-70
2022/08/09 02:28:34;;;;;;;10.67;6.83;;;;;;;;;;5093497;28;20486;-70
2022/08/09 02:31:03;;;;;;;11.93;6.87;;;;;;;;;;5093340;28;20454;-70
2022/08/09 02:33:31;;;;;;;9.53;5.97;;;;;;;;;;5093167;28;20473;-71
2022/08/09 02:36:01;;;;;;;8.53;6.80;;;;;;;;;;5093660;28;20987;-71
2022/08/09 02:38:31;;;;;;;8.17;7.40;;;;;;;;;;5093596;28;20434;-72
2022/08/09 02:41:02;;;;;;;7.30;6.70;;;;;;;;;;5093215;28;20450;-71
2022/08/09 02:43:30;;;;;;;9.53;6.87;;;;;;;;;;5093149;28;20486;-71
2022/08/09 02:45:59;;;;;;;10.50;7.90;;;;;;;;;;5093502;28;20454;-71
2022/08/09 02:48:26;;;;;;;7.00;6.40;;;;;;;;;;5093079;28;20482;-71
2022/08/09 02:50:55;;;;;;;9.83;7.57;;;;;;;;;;5093381;28;20446;-72
2022/08/09 02:53:26;;;;;;;9.07;8.00;;;;;;;;;;5093949;28;20473;-71
2022/08/09 02:55:54;;;;;;;8.30;7.60;;;;;;;;;;5097547;28;20888;-71
2022/08/09 02:58:23;;;;;;;8.83;7.93;;;;;;;;;;5097408;28;20811;-71
2022/08/09 03:00:50;;;;;;;9.80;7.70;;;;;;;;;;5097447;28;20478;-71
2022/08/09 03:03:20;;;;;;;10.90;9.67;;;;;;;;;;5097249;28;21066;-71
2022/08/09 03:05:48;;;;;;;10.03;8.43;;;;;;;;;;5097360;28;20503;-71
2022/08/09 03:08:16;;;;;;;8.70;7.80;;;;;;;;;;5097146;28;20497;-71
2022/08/09 03:10:45;;;;;;;9.03;8.10;;;;;;;;;;5097197;28;20457;-71
2022/08/09 03:13:14;;;;;;;8.67;7.87;;;;;;;;;;5096810;28;20466;-71
2022/08/09 03:15:42;;;;;;;8.93;8.13;;;;;;;;;;5096790;28;20446;-71
2022/08/09 03:18:10;;;;;;;9.23;8.33;;;;;;;;;;5097060;28;20446;-71
2022/08/09 03:20:37;;;;;;;8.37;7.57;;;;;;;;;;5096745;28;20435;-71
2022/08/09 03:23:05;;;;;;;7.90;7.20;;;;;;;;;;5096951;28;20839;-71
2022/08/09 03:25:33;;;;;;;10.13;8.80;;;;;;;;;;5096878;28;20974;-71
2022/08/09 03:28:03;;;;;;;8.33;7.63;;;;;;;;;;5096801;28;21188;-71
2022/08/09 03:30:30;;;;;;;9.67;8.67;;;;;;;;;;5096860;28;20442;-71
2022/08/09 03:32:59;;;;;;;9.10;8.27;;;;;;;;;;5096742;28;20478;-71
2022/08/09 03:35:26;;;;;;;10.30;9.27;;;;;;;;;;5096313;28;20446;-71
2022/08/09 03:37:53;;;;;;;9.67;8.87;;;;;;;;;;5096762;28;20429;-71
2022/08/09 03:40:20;;;;;;;10.27;9.27;;;;;;;;;;5096698;28;20441;-71
2022/08/09 03:42:47;;;;;;;8.50;7.60;;;;;;;;;;5096057;28;20482;-71
2022/08/09 03:45:16;;;;;;;10.03;8.03;;;;;;;;;;5096588;28;20968;-71
2022/08/09 03:47:43;;;;;;;7.93;7.13;;;;;;;;;;5096392;28;20451;-71
2022/08/09 03:50:11;;;;;;;8.87;8.07;;;;;;;;;;5096103;28;20458;-71
2022/08/09 03:52:39;;;;;;;10.03;8.13;;;;;;;;;;5096046;28;20470;-71
2022/08/09 03:55:08;;;;;;;8.33;7.53;;;;;;;;;;5096387;28;20450;-71
2022/08/09 03:57:36;;;;;;;10.40;8.37;;;;;;;;;;5096363;28;20447;-71
2022/08/09 04:00:03;;;;;;;8.60;7.80;;;;;;;;;;5096315;28;20434;-71
2022/08/09 04:02:32;;;;;;;9.33;8.33;;;;;;;;;;5096100;28;20493;-72
2022/08/09 04:05:00;;;;;;;9.93;8.43;;;;;;;;;;5095697;28;20447;-71
2022/08/09 04:07:28;;;;;;;8.80;7.90;;;;;;;;;;5095900;28;20451;-71
2022/08/09 04:09:55;;;;;;;10.17;8.33;;;;;;;;;;5095947;28;20488;-71
2022/08/09 04:12:34;;;;;;;9.50;8.70;;;;;;;;;;5095965;28;20482;-71
2022/08/09 04:15:01;;;;;;;8.00;7.30;;;;;;;;;;5095771;28;20443;-71
2022/08/09 04:17:28;;;;;;;9.03;7.70;;;;;;;;;;5096011;28;20447;-71
2022/08/09 04:19:57;;;;;;;10.03;8.57;;;;;;;;;;5095932;28;20799;-71
2022/08/09 04:22:24;;;;;;;9.93;8.87;;;;;;;;;;5095793;28;20547;-71
2022/08/09 04:24:51;;;;;;;9.90;8.37;;;;;;;;;;5095952;28;20443;-71
2022/08/09 04:27:19;;;;;;;9.43;7.67;;;;;;;;;;5095775;28;20936;-71
2022/08/09 04:29:46;;;;;;;9.00;8.20;;;;;;;;;;5095606;28;20873;-71
2022/08/09 04:32:13;;;;;;;9.67;8.77;;;;;;;;;;5095321;28;20431;-71
2022/08/09 04:34:40;;;;;;;9.50;8.70;;;;;;;;;;5095673;28;20444;-71
2022/08/09 04:37:08;;;;;;;8.53;7.53;;;;;;;;;;5095216;28;20446;-71
2022/08/09 04:39:36;;;;;;;8.53;7.83;;;;;;;;;;5095595;28;20799;-71
2022/08/09 04:42:03;;;;;;;9.53;7.30;;;;;;;;;;5095366;28;20822;-71
2022/08/09 04:44:30;;;;;;;7.70;7.00;;;;;;;;;;5095110;28;20466;-71
2022/08/09 04:46:57;;;;;;;6.37;5.77;;;;;;;;;;5095122;28;20455;-71
2022/08/09 04:49:25;;;;;;;7.47;6.63;;;;;;;;;;5095253;28;20493;-71
2022/08/09 04:51:52;;;;;;;7.97;5.60;;;;;;;;;;5094946;28;20454;-72
2022/08/09 04:54:20;;;;;;;6.37;5.87;;;;;;;;;;5095250;28;20467;-72
2022/08/09 04:56:47;;;;;;;8.63;6.53;;;;;;;;;;5095138;28;20450;-72
2022/08/09 04:59:14;;;;;;;10.00;6.07;;;;;;;;;;5094888;28;20447;-71
2022/08/09 05:01:41;;;;;;;7.80;5.70;;;;;;;;;;5094794;28;20455;-71
2022/08/09 05:04:09;;;;;;;6.80;5.73;;;;;;;;;;5094886;28;20470;-71
2022/08/09 05:06:36;;;;;;;7.53;5.60;;;;;;;;;;5095021;28;20480;-71
2022/08/09 05:09:03;;;;;;;7.30;5.80;;;;;;;;;;5094867;28;21021;-71
2022/08/09 05:11:32;;;;;;;6.80;5.57;;;;;;;;;;5094830;28;20459;-71
2022/08/09 05:13:59;;;;;;;6.33;5.77;;;;;;;;;;5094774;28;20979;-72
2022/08/09 05:16:26;;;;;;;5.53;4.70;;;;;;;;;;5093865;28;20454;-72
2022/08/09 05:18:53;;;;;;;5.40;4.90;;;;;;;;;;5094410;28;20449;-72
2022/08/09 05:21:21;;;;;;;5.37;4.83;;;;;;;;;;5094594;28;20455;-72
2022/08/09 05:23:48;;;;;;;6.97;5.33;;;;;;;;;;5094193;28;20470;-72
2022/08/09 05:26:15;;;;;;;4.57;4.13;;;;;;;;;;5094809;28;20924;-72
2022/08/09 05:28:43;;;;;;;6.90;4.40;;;;;;;;;;5094472;28;20481;-72
2022/08/09 05:31:10;;;;;;;4.50;4.10;;;;;;;;;;5094346;28;20457;-72
2022/08/09 05:33:37;;;;;;;4.13;3.73;;;;;;;;;;5094353;28;20467;-72
2022/08/09 05:36:05;;;;;;;5.83;3.80;;;;;;;;;;5094437;28;20458;-72
2022/08/09 05:38:32;;;;;;;4.17;3.27;;;;;;;;;;5094316;28;20443;-72
2022/08/09 05:40:59;;;;;;;4.00;3.70;;;;;;;;;;5094308;28;20455;-72
2022/08/09 05:43:26;;;;;;;4.50;3.20;;;;;;;;;;5093906;28;20482;-72
2022/08/09 05:45:55;;;;;;;4.93;3.30;;;;;;;;;;5094268;28;20825;-72
2022/08/09 05:48:22;;;;;;;4.70;4.20;;;;;;;;;;5093812;28;20524;-72
2022/08/09 05:50:49;;;;;;;7.20;4.00;;;;;;;;;;5094125;28;20450;-72
2022/08/09 05:53:16;;;;;;;4.00;3.60;;;;;;;;;;5094076;28;20466;-72
2022/08/09 05:55:43;;;;;;;5.00;3.60;;;;;;;;;;5094044;28;20462;-72
2022/08/09 05:58:11;;;;;;;3.70;3.40;;;;;;;;;;5093633;28;20447;-73
2022/08/09 06:00:38;;;;;;;4.13;3.43;;;;;;;;;;5093941;28;21018;-72
2022/08/09 06:03:07;;;;;;;4.07;3.60;;;;;;;;;;5093877;28;20478;-72
2022/08/09 06:05:35;;;;;;;3.37;3.10;;;;;;;;;;5093786;28;20453;-72
2022/08/09 06:08:02;;;;;;;3.63;3.03;;;;;;;;;;5093434;28;20502;-72
2022/08/09 06:10:37;;;;;;;3.80;3.50;;;;;;;;;;5093711;28;20834;-72
2022/08/09 06:13:04;;;;;;;5.27;3.53;;;;;;;;;;5093673;28;20470;-71
2022/08/09 06:15:31;;;;;;;5.10;3.60;;;;;;;;;;5093233;28;20450;-71
2022/08/09 06:17:59;;;;;;;4.13;2.73;;;;;;;;;;5092828;28;20471;-72
2022/08/09 06:20:27;;;;;;;3.43;3.13;;;;;;;;;;5093429;28;20454;-72
2022/08/09 06:22:57;;;;;;;4.23;2.90;;;;;;;;;;5093317;28;20976;-72
2022/08/09 06:25:25;;;;;;;3.40;3.10;;;;;;;;;;5093339;28;20437;-71
2022/08/09 06:27:52;;;;;;;3.67;3.23;;;;;;;;;;5093303;28;20963;-71
2022/08/09 06:30:19;;;;;;;2.60;2.40;;;;;;;;;;5093152;28;20490;-71
2022/08/09 06:32:47;;;;;;;7.53;3.20;;;;;;;;;;5093032;28;20481;-71
2022/08/09 06:35:14;;;;;;;2.93;2.70;;;;;;;;;;5093336;28;20478;-72
2022/08/09 06:37:43;;;;;;;3.90;3.10;;;;;;;;;;5093197;28;20461;-72
2022/08/09 06:40:11;;;;;;;3.37;3.07;;;;;;;;;;5093009;28;20437;-72
2022/08/09 06:42:38;;;;;;;7.90;2.80;;;;;;;;;;5093072;28;20506;-72
2022/08/09 06:45:06;;;;;;;4.33;3.93;;;;;;;;;;5093129;28;20549;-72
2022/08/09 06:47:33;;;;;;;3.27;3.00;;;;;;;;;;5093015;28;20450;-72
2022/08/09 06:50:00;;;;;;;3.60;3.00;;;;;;;;;;5092900;28;20516;-72
2022/08/09 06:52:27;;;;;;;3.50;3.00;;;;;;;;;;5093212;28;20496;-72
2022/08/09 06:54:56;;;;;;;3.30;2.80;;;;;;;;;;5093192;28;20788;-73
2022/08/09 06:57:23;;;;;;;3.63;3.30;;;;;;;;;;5093312;28;20454;-73
2022/08/09 06:59:51;;;;;;;4.13;3.70;;;;;;;;;;5093315;28;20798;-73
2022/08/09 07:02:18;;;;;;;4.10;3.70;;;;;;;;;;5093200;28;20474;-73
2022/08/09 07:04:45;;;;;;;14.10;3.67;;;;;;;;;;5092921;28;20453;-74
2022/08/09 07:07:14;;;;;;;4.23;3.40;;;;;;;;;;5092854;28;20452;-72
2022/08/09 07:09:41;;;;;;;4.47;3.70;;;;;;;;;;5093254;28;20486;-72
2022/08/09 07:12:10;;;;;;;6.10;3.80;;;;;;;;;;5093306;28;20454;-71
2022/08/09 07:14:37;;;;;;;4.50;3.60;;;;;;;;;;5092600;28;20493;-73
2022/08/09 07:17:04;;;;;;;4.60;3.63;;;;;;;;;;5093008;28;20876;-72
2022/08/09 07:19:31;;;;;;;5.03;3.27;;;;;;;;;;5093139;28;20830;-72
2022/08/09 07:21:58;;;;;;;4.77;3.20;;;;;;;;;;5093039;28;20450;-72
2022/08/09 07:24:26;;;;;;;11.40;3.80;;;;;;;;;;5092625;28;20465;-72
2022/08/09 07:26:53;;;;;;;8.87;4.07;;;;;;;;;;5091687;28;20446;-71
2022/08/09 07:29:21;;;;;;;7.13;3.43;;;;;;;;;;5091714;28;20549;-71
2022/08/09 07:31:48;;;;;;;10.30;3.20;;;;;;;;;;5091878;28;20482;-71
2022/08/09 07:34:15;;;;;;;4.60;3.47;;;;;;;;;;5090356;28;20470;-71
2022/08/09 07:36:43;;;;;;;6.60;3.70;;;;;;;;;;5091199;28;20446;-71
2022/08/09 07:39:10;;;;;;;3.80;3.37;;;;;;;;;;5092632;28;20442;-72
2022/08/09 07:41:37;;;;;;;8.10;3.70;;;;;;;;;;5096421;28;20943;-72
2022/08/09 07:44:04;;;;;;;7.17;4.00;;;;;;;;;;5096048;28;20601;-72
2022/08/09 07:46:33;;;;;;;5.30;3.53;;;;;;;;;;5096491;28;20806;-72
2022/08/09 07:49:00;;;;;;;4.97;3.50;;;;;;;;;;5096446;28;20462;-72
2022/08/09 07:51:27;;;;;;;3.67;2.60;;;;;;;;;;5090964;28;20445;-71
2022/08/09 07:53:54;;;;;;;7.00;3.10;;;;;;;;;;5094861;28;20981;-71
2022/08/09 07:56:22;;;;;;;4.67;3.10;;;;;;;;;;5094873;28;20460;-71
2022/08/09 07:58:49;;;;;;;4.93;3.20;;;;;;;;;;5094678;28;20454;-72
2022/08/09 08:01:16;;;;;;;3.67;3.20;;;;;;;;;;5094929;28;20453;-72
2022/08/09 08:03:44;;;;;;;4.63;3.03;;;;;;;;;;5093600;28;20487;-72
2022/08/09 08:06:12;;;;;;;4.43;3.77;;;;;;;;;;5094156;28;20447;-71
2022/08/09 08:08:39;;;;;;;9.93;3.50;;;;;;;;;;5094431;28;20439;-72
2022/08/09 08:11:06;;;;;;;6.00;3.13;;;;;;;;;;5094798;28;20999;-72
2022/08/09 08:13:33;;;;;;;3.50;3.17;;;;;;;;;;5093946;28;20517;-71
2022/08/09 08:16:00;;;;;;;11.17;3.23;;;;;;;;;;5094159;28;20439;-72
2022/08/09 08:18:27;;;;;;;3.77;3.00;;;;;;;;;;5094470;28;20789;-72
2022/08/09 08:20:56;;;;;;;4.67;3.27;;;;;;;;;;5094170;28;20451;-72
2022/08/09 08:23:23;;;;;;;4.70;2.43;;;;;;;;;;5093980;28;20838;-72
2022/08/09 08:25:51;;;;;;;3.47;2.60;;;;;;;;;;5094848;28;20442;-72
2022/08/09 08:28:19;;;;;;;3.80;2.77;;;;;;;;;;5090824;28;20461;-71
2022/08/09 08:30:46;;;;;;;6.63;2.70;;;;;;;;;;5093694;28;20581;-72
2022/08/09 08:33:14;;;;;;;4.00;2.83;;;;;;;;;;5094801;28;20470;-71
2022/08/09 08:35:41;;;;;;;6.17;2.50;;;;;;;;;;5094694;28;20447;-71
2022/08/09 08:38:10;;;;;;;4.43;2.93;;;;;;;;;;5094762;28;20462;-71
2022/08/09 08:40:37;;;;;;;5.63;2.57;;;;;;;;;;5095070;28;20438;-71
2022/08/09 08:43:05;;;;;;;4.43;2.77;;;;;;;;;;5094480;28;20475;-72
2022/08/09 08:45:34;;;;;;;4.30;2.57;;;;;;;;;;5094935;28;20446;-71
2022/08/09 08:48:01;;;;;;;2.37;2.17;;;;;;;;;;5094949;28;20523;-71
2022/08/09 08:50:28;;;;;;;6.20;2.50;;;;;;;;;;5094218;28;21056;-71
2022/08/09 08:52:56;;;;;;;2.93;2.73;;;;;;;;;;5094249;28;20471;-71
2022/08/09 08:55:24;;;;;;;4.90;2.67;;;;;;;;;;5094265;28;20461;-72
2022/08/09 08:57:53;;;;;;;4.43;2.67;;;;;;;;;;5094782;28;20454;-72
2022/08/09 09:00:20;;;;;;;2.80;2.50;;;;;;;;;;5094848;28;20437;-71
2022/08/09 09:02:49;;;;;;;3.67;2.50;;;;;;;;;;5094711;28;20963;-72
2022/08/09 09:05:19;;;;;;;5.40;2.40;;;;;;;;;;5094638;28;20461;-71
2022/08/09 09:07:49;;;;;;;3.03;2.43;;;;;;;;;;5093933;28;20534;-72
2022/08/09 09:10:16;;;;;;;3.20;2.70;;;;;;;;;;5094580;28;20991;-71
2022/08/09 09:12:45;;;;;;;6.47;2.50;;;;;;;;;;5094265;28;20474;-71
2022/08/09 09:15:12;;;;;;;5.17;2.83;;;;;;;;;;5094276;28;20454;-71
2022/08/09 09:17:40;;;;;;;4.57;2.53;;;;;;;;;;5094979;28;20431;-72
2022/08/09 09:20:07;;;;;;;2.77;2.53;;;;;;;;;;5094364;28;20446;-72
2022/08/09 09:22:50;;;;;;;2.90;2.57;;;;;;;;;;5093639;28;20475;-71
2022/08/09 09:25:30;;;;;;;3.37;2.37;;;;;;;;;;5093401;28;20928;-72
2022/08/09 09:27:59;;;;;;;4.87;2.57;;;;;;;;;;5094148;28;20439;-72
2022/08/09 09:30:26;;;;;;;4.97;2.87;;;;;;;;;;5093523;28;20482;-71
2022/08/09 09:33:01;;;;;;;2.93;2.50;;;;;;;;;;5093827;28;20478;-71
2022/08/09 09:35:28;;;;;;;5.77;2.77;;;;;;;;;;5093900;28;20863;-72
2022/08/09 09:37:55;;;;;;;4.40;3.20;;;;;;;;;;5094112;28;20458;-72
2022/08/09 09:40:40;;;;;;;2.80;2.60;;;;;;;;;;5094283;28;20427;-72
2022/08/09 09:43:09;;;;;;;2.30;2.07;;;;;;;;;;5093659;28;20486;-71
2022/08/09 09:45:47;;;;;;;1.90;1.70;;;;;;;;;;5093962;28;21022;-72
2022/08/09 09:48:14;;;;;;;2.30;2.00;;;;;;;;;;5094090;28;20985;-72
2022/08/09 09:50:41;;;;;;;3.13;2.80;;;;;;;;;;5093485;28;20490;-71
2022/08/09 09:53:14;;;;;;;3.70;3.30;;;;;;;;;;5093743;28;20470;-71
2022/08/09 09:55:50;;;;;;;3.03;2.27;;;;;;;;;;5093393;28;20495;-72
2022/08/09 09:58:19;;;;;;;3.53;1.90;;;;;;;;;;5093678;28;20963;-71
2022/08/09 10:00:46;;;;;;;5.63;2.33;;;;;;;;;;5093561;28;20447;-72
2022/08/09 10:03:13;;;;;;;6.13;2.40;;;;;;;;;;5093016;28;20478;-72
2022/08/09 10:05:55;;;;;;;4.90;2.20;;;;;;;;;;5093450;28;20446;-72
2022/08/09 10:08:23;;;;;;;3.87;2.20;;;;;;;;;;5093797;28;20454;-72
2022/08/09 10:10:50;;;;;;;2.30;2.10;;;;;;;;;;5093214;28;20474;-72
2022/08/09 10:13:18;;;;;;;2.87;2.30;;;;;;;;;;5093562;28;20475;-72
2022/08/09 10:15:49;;;;;;;2.90;2.07;;;;;;;;;;5092918;28;20458;-72
2022/08/09 10:18:16;;;;;;;2.33;2.00;;;;;;;;;;5093335;28;20450;-72
2022/08/09 10:20:43;;;;;;;2.63;2.07;;;;;;;;;;5093252;28;20441;-72
2022/08/09 10:23:15;;;;;;;3.30;1.70;;;;;;;;;;5093231;28;20475;-72
2022/08/09 10:25:42;;;;;;;2.00;1.80;;;;;;;;;;5093130;28;20458;-72
2022/08/09 10:28:09;;;;;;;3.60;1.87;;;;;;;;;;5093453;28;20898;-72
2022/08/09 10:30:38;;;;;;;3.70;1.97;;;;;;;;;;5093147;28;20497;-72
2022/08/09 10:33:05;;;;;;;2.17;1.97;;;;;;;;;;5092982;28;20463;-72
2022/08/09 10:35:32;;;;;;;4.47;2.20;;;;;;;;;;5093472;28;20497;-72
2022/08/09 10:38:00;;;;;;;3.23;2.20;;;;;;;;;;5093467;28;20449;-72
2022/08/09 10:40:29;;;;;;;2.43;1.90;;;;;;;;;;5093011;28;20495;-72
2022/08/09 10:42:56;;;;;;;3.33;1.83;;;;;;;;;;5092550;28;20502;-73
2022/08/09 10:45:24;;;;;;;7.93;1.93;;;;;;;;;;5093296;28;20446;-71
2022/08/09 10:47:58;;;;;;;2.30;1.87;;;;;;;;;;5092998;28;20451;-71
2022/08/09 10:51:05;;;;;;;4.07;1.87;;;;;;;;;;5093314;28;20474;-72
2022/08/09 10:53:20;;;;;;;2.30;2.10;;;;;;;;;;5092635;28;20467;-72
2022/08/09 10:55:47;;;;;;;5.30;2.27;;;;;;;;;;5092937;28;20529;-71
2022/08/09 10:58:30;;;;;;;2.93;1.70;;;;;;;;;;5092887;28;20484;-71
2022/08/09 11:00:57;;;;;;;2.80;1.60;;;;;;;;;;5093034;28;20447;-71
2022/08/09 11:03:26;;;;;;;4.40;2.20;;;;;;;;;;5092820;28;20523;-72
2022/08/09 11:06:12;;;;;;;3.43;2.17;;;;;;;;;;5093328;28;20954;-72
2022/08/09 11:08:41;;;;;;;1.90;1.70;;;;;;;;;;5092691;28;20442;-72
2022/08/09 11:11:08;;;;;;;3.00;1.80;;;;;;;;;;5093276;28;20477;-71
2022/08/09 11:13:35;;;;;;;2.93;1.97;;;;;;;;;;5083898;28;20851;-72
2022/08/09 11:16:21;;;;;;;4.40;1.67;;;;;;;;;;5095127;28;20798;-72
2022/08/09 11:18:49;;;;;;;3.13;1.80;;;;;;;;;;5096050;28;20510;-71
2022/08/09 11:21:31;;;;;;;2.30;2.10;;;;;;;;;;5095664;28;20447;-74
2022/08/09 11:24:02;;;;;;;2.80;1.83;;;;;;;;;;5095341;28;20470;-71
2022/08/09 11:26:39;;;;;;;2.90;2.00;;;;;;;;;;5095138;28;20486;-71
2022/08/09 11:29:06;;;;;;;2.87;1.83;;;;;;;;;;5095758;28;20908;-71
2022/08/09 11:31:47;;;;;;;1.83;1.60;;;;;;;;;;5095601;28;20485;-72
2022/08/09 11:34:18;;;;;;;2.23;1.70;;;;;;;;;;5095525;28;20987;-72
2022/08/09 11:36:46;;;;;;;2.40;1.90;;;;;;;;;;5095422;28;20430;-72
2022/08/09 11:39:14;;;;;;;2.50;2.00;;;;;;;;;;5095611;28;20880;-72
2022/08/09 11:41:41;;;;;;;2.90;1.63;;;;;;;;;;5095151;28;20450;-71
2022/08/09 11:44:08;;;;;;;2.03;1.43;;;;;;;;;;5095004;28;20486;-72
2022/08/09 11:46:55;;;;;;;3.20;1.60;;;;;;;;;;5094835;28;20455;-71
2022/08/09 11:49:37;;;;;;;2.33;1.70;;;;;;;;;;5089086;28;20510;-71
2022/08/09 11:52:06;;;;;;;3.13;1.93;;;;;;;;;;5074161;28;20494;-71
2022/08/09 11:54:33;;;;;;;2.23;1.73;;;;;;;;;;5075155;28;20447;-71
2022/08/09 11:57:19;;;;;;;2.60;1.70;;;;;;;;;;5075958;28;20832;-71
2022/08/09 11:59:46;;;;;;;3.00;2.00;;;;;;;;;;5075226;28;20537;-71
2022/08/09 12:02:13;;;;;;;5.40;1.80;;;;;;;;;;5075746;28;20448;-72
2022/08/09 12:04:41;;;;;;;2.57;1.87;;;;;;;;;;5075284;28;20455;-71
2022/08/09 12:07:09;;;;;;;3.00;1.87;;;;;;;;;;5075675;28;20459;-71
2022/08/09 12:09:37;;;;;;;2.77;1.80;;;;;;;;;;5075197;28;20456;-71
2022/08/09 12:12:07;;;;;;;2.57;1.60;;;;;;;;;;5075548;28;20471;-72
2022/08/09 12:14:38;;;;;;;7.47;3.40;;;;;;;;;;5075567;28;20527;-71
2022/08/09 12:17:07;;;;;;;6.90;1.73;;;;;;;;;;5075661;28;20874;-71
2022/08/09 12:19:34;;;;;;;2.90;1.73;;;;;;;;;;5075515;28;20487;-71
2022/08/09 12:22:02;;;;;;;1.83;1.63;;;;;;;;;;5075434;28;20780;-71
2022/08/09 12:24:30;;;;;;;3.40;2.30;;;;;;;;;;5075393;28;20431;-71
2022/08/09 12:26:58;;;;;;;2.83;1.57;;;;;;;;;;5075085;28;20956;-71
2022/08/09 12:29:27;;;;;;;3.20;1.60;;;;;;;;;;5075371;28;20460;-71
2022/08/09 12:32:01;;;;;;;3.37;1.80;;;;;;;;;;5075228;28;20558;-72
2022/08/09 12:34:32;;;;;;;2.30;1.83;;;;;;;;;;5075183;28;20877;-71
2022/08/09 12:37:00;;;;;;;2.40;1.73;;;;;;;;;;5075226;28;20436;-71
2022/08/09 12:39:27;;;;;;;5.37;2.20;;;;;;;;;;5075359;28;20463;-71
2022/08/09 12:42:05;;;;;;;2.30;2.00;;;;;;;;;;5075291;28;20458;-71
2022/08/09 12:44:32;;;;;;;2.30;1.90;;;;;;;;;;5074551;28;20463;-71
2022/08/09 12:46:59;;;;;;;9.43;2.03;;;;;;;;;;5074864;28;20452;-71
2022/08/09 12:49:27;;;;;;;4.13;1.90;;;;;;;;;;5074567;28;20455;-71
2022/08/09 12:51:54;;;;;;;4.50;2.23;;;;;;;;;;5074631;28;20835;-71
2022/08/09 12:54:21;;;;;;;4.70;2.17;;;;;;;;;;5074435;28;20471;-71
2022/08/09 12:56:49;;;;;;;8.90;2.20;;;;;;;;;;5074879;28;20458;-71
2022/08/09 12:59:18;;;;;;;2.63;2.03;;;;;;;;;;5074939;28;20448;-71
2022/08/09 13:01:46;;;;;;;3.80;2.23;;;;;;;;;;5074894;28;20447;-71
2022/08/09 13:04:16;;;;;;;2.63;1.70;;;;;;;;;;5074564;28;20475;-71
2022/08/09 13:06:44;;;;;;;2.87;2.27;;;;;;;;;;5074784;28;20514;-72
2022/08/09 13:09:13;;;;;;;2.33;2.13;;;;;;;;;;5074155;28;20452;-70
2022/08/09 13:11:42;;;;;;;4.10;2.00;;;;;;;;;;5074349;28;20486;-70
2022/08/09 13:14:10;;;;;;;3.87;2.17;;;;;;;;;;5074486;28;20566;-72
2022/08/09 13:16:44;;;;;;;4.40;2.40;;;;;;;;;;5074601;28;20452;-73
2022/08/09 13:19:11;;;;;;;3.00;1.60;;;;;;;;;;5074226;28;20448;-70
2022/08/09 13:21:39;;;;;;;2.80;2.00;;;;;;;;;;5074629;28;20470;-70
2022/08/09 13:24:08;;;;;;;6.80;2.47;;;;;;;;;;5073953;28;20488;-71
2022/08/09 13:26:37;;;;;;;3.53;2.50;;;;;;;;;;5074204;28;20991;-70
2022/08/09 13:29:07;;;;;;;4.83;2.60;;;;;;;;;;5074108;28;20534;-71
2022/08/09 13:31:35;;;;;;;2.10;1.90;;;;;;;;;;5074029;28;20499;-71
2022/08/09 13:34:04;;;;;;;2.53;1.93;;;;;;;;;;5073532;28;20467;-71
2022/08/09 13:36:32;;;;;;;4.93;2.10;;;;;;;;;;5074594;28;20885;-70
2022/08/09 13:38:59;;;;;;;4.07;2.17;;;;;;;;;;5073811;28;20481;-70
2022/08/09 13:41:27;;;;;;;3.53;2.00;;;;;;;;;;5073969;28;20531;-70
2022/08/09 13:43:54;;;;;;;2.40;1.90;;;;;;;;;;5073596;28;20488;-71
2022/08/09 13:46:21;;;;;;;3.60;1.80;;;;;;;;;;5074281;28;20460;-70
2022/08/09 13:48:48;;;;;;;7.30;2.10;;;;;;;;;;5073974;28;20448;-70
2022/08/09 13:51:17;;;;;;;3.33;2.00;;;;;;;;;;5073517;28;20498;-70
2022/08/09 13:53:44;;;;;;;3.27;1.97;;;;;;;;;;5073856;28;20494;-71
2022/08/09 13:56:11;;;;;;;4.03;1.93;;;;;;;;;;5074119;28;20452;-70
2022/08/09 13:58:38;;;;;;;2.00;1.80;;;;;;;;;;5074396;28;20451;-70
2022/08/09 14:01:05;;;;;;;2.13;1.93;;;;;;;;;;5074118;28;20459;-70
2022/08/09 14:03:33;;;;;;;4.13;1.93;;;;;;;;;;5073870;28;20471;-71
2022/08/09 14:06:00;;;;;;;2.60;2.30;;;;;;;;;;5073707;28;20448;-70
2022/08/09 14:08:29;;;;;;;2.43;2.03;;;;;;;;;;5073873;28;20880;-70
2022/08/09 14:10:56;;;;;;;2.47;2.03;;;;;;;;;;5073977;28;20444;-71
2022/08/09 14:13:24;;;;;;;4.83;2.17;;;;;;;;;;5073704;28;20847;-71
2022/08/09 14:15:52;;;;;;;2.00;1.80;;;;;;;;;;5081843;28;20458;-70
2022/08/09 14:18:19;;;;;;;5.10;2.07;;;;;;;;;;5094456;28;20443;-70
2022/08/09 14:20:46;;;;;;;3.47;2.03;;;;;;;;;;5094275;28;20451;-70
2022/08/09 14:23:13;;;;;;;3.00;2.00;;;;;;;;;;5093906;28;20557;-70
2022/08/09 14:25:42;;;;;;;3.53;2.00;;;;;;;;;;5093627;28;20446;-70
2022/08/09 14:28:09;;;;;;;3.80;1.87;;;;;;;;;;5093608;28;20451;-70
2022/08/09 14:30:37;;;;;;;3.30;2.07;;;;;;;;;;5093857;28;20810;-70
2022/08/09 14:33:04;;;;;;;2.20;1.87;;;;;;;;;;5093438;28;20502;-71
2022/08/09 14:35:31;;;;;;;2.20;1.73;;;;;;;;;;5093580;28;20454;-70
2022/08/09 14:37:59;;;;;;;3.27;2.07;;;;;;;;;;5093785;28;20453;-71
2022/08/09 14:40:26;;;;;;;2.93;2.10;;;;;;;;;;5093721;28;20453;-71
2022/08/09 14:42:55;;;;;;;2.10;1.90;;;;;;;;;;5093730;28;20482;-71
2022/08/09 14:45:22;;;;;;;4.20;2.70;;;;;;;;;;5092976;28;21023;-70
2022/08/09 14:47:49;;;;;;;3.07;2.50;;;;;;;;;;5092210;28;20446;-71
2022/08/09 14:50:17;;;;;;;2.30;1.70;;;;;;;;;;5095423;28;20927;-70
2022/08/09 14:52:44;;;;;;;5.13;3.10;;;;;;;;;;5097942;28;20999;-71